Time;durP1;ratioP1;P1;durP2;ratioP2;P2;SDS_P1;SDS_P2;PMS_P1;PMS_P2;Temp;Humidity;BMP_temperature;BMP_pressure;BME280_temperature;BME280_humidity;BME280_pressure;Samples;Min_cycle;Max_cycle;Signal;HPM_P1;HPM_P2
2020/12/15 00:01:45;;;;;;;2.85;1.00;;;9.90;94.70;;;;;;4994557;28;20037;-76
2020/12/15 00:04:11;;;;;;;2.05;1.00;;;9.90;94.70;;;;;;5010038;28;20022;-76
2020/12/15 00:06:37;;;;;;;1.75;1.00;;;9.80;94.70;;;;;;4994801;28;20421;-76
2020/12/15 00:09:03;;;;;;;1.83;1.00;;;9.80;94.70;;;;;;4994863;28;20031;-75
2020/12/15 00:11:29;;;;;;;2.10;1.08;;;9.80;94.70;;;;;;4995083;28;20054;-75
2020/12/15 00:13:54;;;;;;;1.42;0.90;;;9.80;94.70;;;;;;5008297;28;20069;-76
2020/12/15 00:16:20;;;;;;;3.28;1.63;;;9.80;94.70;;;;;;4995390;28;20034;-75
2020/12/15 00:18:46;;;;;;;2.38;1.00;;;9.80;94.70;;;;;;5009410;28;20018;-75
2020/12/15 00:21:22;;;;;;;2.35;1.05;;;9.80;94.70;;;;;;5009911;28;20069;-75
2020/12/15 00:23:49;;;;;;;2.67;1.20;;;9.80;94.60;;;;;;4994272;28;20026;-75
2020/12/15 00:26:15;;;;;;;3.67;1.00;;;9.80;94.60;;;;;;5009442;28;20034;-75
2020/12/15 00:28:41;;;;;;;3.25;1.20;;;9.80;94.90;;;;;;4993963;28;20069;-75
2020/12/15 00:31:07;;;;;;;1.00;0.80;;;9.90;94.60;;;;;;4994777;28;20062;-75
2020/12/15 00:33:33;;;;;;;2.45;0.90;;;9.80;94.60;;;;;;5009623;28;20443;-75
2020/12/15 00:35:58;;;;;;;3.20;1.25;;;9.80;94.60;;;;;;4993791;28;20026;-75
2020/12/15 00:38:24;;;;;;;1.95;1.10;;;9.90;94.60;;;;;;4994634;28;20022;-75
2020/12/15 00:40:50;;;;;;;1.63;1.00;;;9.80;94.60;;;;;;4994380;28;20237;-76
2020/12/15 00:43:16;;;;;;;3.33;1.08;;;9.90;94.60;;;;;;4994232;28;20022;-75
2020/12/15 00:45:41;;;;;;;1.27;0.98;;;9.90;94.60;;;;;;4994048;28;20037;-75
2020/12/15 00:48:07;;;;;;;1.67;1.33;;;9.80;94.60;;;;;;4994410;28;20027;-75
2020/12/15 00:50:33;;;;;;;1.75;0.95;;;9.90;94.60;;;;;;4994377;28;20371;-75
2020/12/15 00:52:58;;;;;;;2.53;1.30;;;9.90;94.60;;;;;;4993375;28;20054;-76
2020/12/15 00:55:24;;;;;;;3.72;1.80;;;9.90;94.60;;;;;;4994303;28;20459;-75
2020/12/15 00:57:49;;;;;;;2.88;1.33;;;9.90;94.60;;;;;;4993720;28;20029;-75
2020/12/15 01:00:15;;;;;;;2.05;1.50;;;9.90;94.50;;;;;;4994151;28;20053;-75
2020/12/15 01:02:41;;;;;;;2.38;1.20;;;9.90;94.50;;;;;;4993941;28;20450;-76
2020/12/15 01:05:07;;;;;;;2.28;1.10;;;9.80;94.50;;;;;;4994164;28;20036;-75
2020/12/15 01:07:32;;;;;;;1.98;1.10;;;9.90;94.50;;;;;;4994046;28;20364;-76
2020/12/15 01:09:58;;;;;;;2.88;1.20;;;9.80;94.50;;;;;;4993491;28;20034;-75
2020/12/15 01:12:24;;;;;;;1.90;0.88;;;9.90;94.50;;;;;;4993912;28;20105;-75
2020/12/15 01:14:49;;;;;;;1.88;0.90;;;9.90;94.50;;;;;;4992052;28;20053;-75
2020/12/15 01:17:15;;;;;;;2.03;0.95;;;9.90;94.50;;;;;;4993538;28;20018;-75
2020/12/15 01:19:41;;;;;;;2.00;0.80;;;9.90;94.50;;;;;;4993406;28;20034;-82
2020/12/15 01:22:07;;;;;;;1.25;0.90;;;9.90;94.50;;;;;;4993504;28;20030;-75
2020/12/15 01:24:33;;;;;;;2.92;0.82;;;9.90;94.50;;;;;;5008769;28;20026;-76
2020/12/15 01:26:59;;;;;;;1.52;0.80;;;10.00;94.50;;;;;;5007862;28;20039;-75
2020/12/15 01:29:25;;;;;;;1.60;1.05;;;9.90;94.40;;;;;;4992378;28;20033;-74
2020/12/15 01:31:50;;;;;;;2.90;1.17;;;9.90;94.50;;;;;;4993116;28;20489;-75
2020/12/15 01:34:16;;;;;;;2.47;1.30;;;9.90;94.40;;;;;;4993347;28;20029;-75
2020/12/15 01:36:42;;;;;;;1.77;1.08;;;9.90;94.50;;;;;;4993545;28;20030;-85
2020/12/15 01:39:07;;;;;;;2.33;1.00;;;9.90;94.40;;;;;;4992582;28;20356;-75
2020/12/15 01:41:34;;;;;;;3.53;1.15;;;9.90;94.40;;;;;;5008368;28;20427;-75
2020/12/15 01:44:01;;;;;;;2.42;0.80;;;9.90;94.50;;;;;;5007960;28;20101;-76
2020/12/15 01:46:28;;;;;;;2.47;0.88;;;9.90;94.50;;;;;;4993373;28;20026;-76
2020/12/15 01:48:55;;;;;;;2.63;0.85;;;9.90;94.50;;;;;;4992749;28;20447;-75
2020/12/15 01:51:22;;;;;;;2.33;1.02;;;9.90;94.50;;;;;;4993309;28;20085;-76
2020/12/15 01:53:48;;;;;;;1.38;0.80;;;9.90;94.50;;;;;;4992280;28;20085;-75
2020/12/15 01:56:14;;;;;;;3.67;1.10;;;10.00;94.50;;;;;;5007846;28;20054;-75
2020/12/15 01:58:41;;;;;;;2.63;0.88;;;10.00;94.40;;;;;;4993183;28;20030;-75
2020/12/15 02:01:07;;;;;;;1.67;1.00;;;9.90;94.40;;;;;;5007514;28;20073;-75
2020/12/15 02:03:33;;;;;;;1.65;0.90;;;10.00;94.50;;;;;;4993199;28;20062;-75
2020/12/15 02:05:59;;;;;;;2.42;1.23;;;10.00;94.40;;;;;;4992476;28;20463;-74
2020/12/15 02:08:25;;;;;;;1.35;0.88;;;10.00;94.40;;;;;;4992703;28;20368;-76
2020/12/15 02:10:51;;;;;;;1.85;0.90;;;9.90;94.40;;;;;;4991222;28;20034;-76
2020/12/15 02:13:17;;;;;;;1.98;0.82;;;9.90;94.40;;;;;;5008096;28;20095;-75
2020/12/15 02:15:43;;;;;;;2.25;1.08;;;9.90;94.40;;;;;;5007926;28;20026;-75
2020/12/15 02:18:09;;;;;;;2.20;1.00;;;10.00;94.40;;;;;;4992448;28;20022;-75
2020/12/15 02:20:38;;;;;;;4.65;1.25;;;10.00;94.40;;;;;;4991525;28;20018;-75
2020/12/15 02:23:03;;;;;;;2.10;0.90;;;10.00;94.40;;;;;;4992412;28;20029;-75
2020/12/15 02:25:29;;;;;;;1.27;0.82;;;10.00;94.40;;;;;;4992425;28;20030;-75
2020/12/15 02:27:55;;;;;;;2.40;1.17;;;10.00;94.40;;;;;;4992324;28;20352;-75
2020/12/15 02:30:20;;;;;;;3.03;1.15;;;10.00;94.40;;;;;;5007767;28;20113;-75
2020/12/15 02:32:46;;;;;;;2.97;1.52;;;10.00;94.40;;;;;;4992563;28;20028;-83
2020/12/15 02:35:12;;;;;;;2.30;1.10;;;9.90;94.40;;;;;;5007714;28;20062;-75
2020/12/15 02:37:38;;;;;;;2.42;1.30;;;9.90;94.40;;;;;;4992621;28;20022;-75
2020/12/15 02:40:06;;;;;;;4.28;1.27;;;9.90;94.40;;;;;;4996000;28;20025;-75
2020/12/15 02:42:32;;;;;;;2.35;1.10;;;9.90;94.40;;;;;;4995048;28;20114;-75
2020/12/15 02:44:59;;;;;;;2.17;0.85;;;9.90;94.40;;;;;;5011123;28;20034;-75
2020/12/15 02:47:25;;;;;;;4.93;1.23;;;9.90;94.40;;;;;;4996543;28;20030;-75
2020/12/15 02:49:51;;;;;;;2.35;1.08;;;9.90;94.40;;;;;;4996290;28;20027;-76
2020/12/15 02:52:19;;;;;;;1.25;0.90;;;9.90;94.40;;;;;;4995246;28;20037;-75
2020/12/15 02:54:46;;;;;;;1.58;0.98;;;9.90;94.40;;;;;;4996320;28;20141;-75
2020/12/15 02:57:12;;;;;;;2.13;0.70;;;9.90;94.40;;;;;;4995904;28;20034;-75
2020/12/15 02:59:38;;;;;;;2.35;1.10;;;9.90;94.40;;;;;;4996466;28;20027;-75
2020/12/15 03:02:03;;;;;;;1.67;1.20;;;9.90;94.40;;;;;;5010965;28;20030;-75
2020/12/15 03:04:29;;;;;;;1.90;1.23;;;9.90;94.40;;;;;;5011443;28;20477;-75
2020/12/15 03:06:54;;;;;;;2.03;0.95;;;9.90;94.40;;;;;;4994366;28;20030;-75
2020/12/15 03:09:20;;;;;;;2.40;1.05;;;9.90;94.40;;;;;;4996001;28;20038;-75
2020/12/15 03:11:45;;;;;;;1.90;0.90;;;10.00;94.50;;;;;;4996078;28;20105;-75
2020/12/15 03:14:11;;;;;;;1.27;0.88;;;10.00;94.50;;;;;;5010341;28;20507;-75
2020/12/15 03:16:37;;;;;;;2.67;1.20;;;9.90;94.40;;;;;;4995434;28;20031;-74
2020/12/15 03:19:02;;;;;;;2.45;0.85;;;9.90;94.50;;;;;;4993416;28;20022;-75
2020/12/15 03:21:30;;;;;;;2.80;1.10;;;10.00;94.50;;;;;;4994962;28;20030;-75
2020/12/15 03:23:56;;;;;;;3.35;1.00;;;10.00;94.50;;;;;;4994818;28;20019;-75
2020/12/15 03:26:23;;;;;;;2.38;1.05;;;10.00;94.50;;;;;;4994813;28;20033;-75
2020/12/15 03:28:49;;;;;;;1.63;1.13;;;10.00;94.40;;;;;;4995165;28;20028;-75
2020/12/15 03:31:15;;;;;;;2.65;0.90;;;10.00;94.50;;;;;;4995172;28;20030;-75
2020/12/15 03:33:41;;;;;;;2.35;1.17;;;10.00;94.50;;;;;;4995091;28;20110;-75
2020/12/15 03:36:07;;;;;;;2.03;0.88;;;10.00;94.50;;;;;;4993294;28;20068;-75
2020/12/15 03:38:33;;;;;;;2.20;0.93;;;10.00;94.50;;;;;;4994890;28;20038;-78
2020/12/15 03:40:59;;;;;;;3.53;0.98;;;10.00;94.50;;;;;;4993099;28;20027;-77
2020/12/15 03:43:25;;;;;;;1.38;0.90;;;10.00;94.50;;;;;;4994901;28;20393;-77
2020/12/15 03:45:51;;;;;;;1.92;0.88;;;10.00;94.50;;;;;;4995004;28;20034;-77
2020/12/15 03:48:16;;;;;;;2.45;1.05;;;10.00;94.50;;;;;;5010282;28;20030;-76
2020/12/15 03:50:42;;;;;;;3.50;1.08;;;10.00;94.50;;;;;;4995538;28;20125;-75
2020/12/15 03:53:08;;;;;;;2.05;1.20;;;10.10;94.50;;;;;;4993701;28;20031;-76
2020/12/15 03:55:33;;;;;;;1.35;1.10;;;10.00;94.50;;;;;;4994089;28;20045;-75
2020/12/15 03:57:59;;;;;;;3.03;1.27;;;10.00;94.50;;;;;;4994755;28;20160;-76
2020/12/15 04:00:25;;;;;;;2.78;1.13;;;10.00;94.50;;;;;;4995217;28;20480;-76
2020/12/15 04:02:50;;;;;;;2.10;1.17;;;10.00;94.50;;;;;;4995223;28;20058;-74
2020/12/15 04:05:16;;;;;;;4.43;1.10;;;10.00;94.50;;;;;;4994602;28;20072;-75
2020/12/15 04:07:43;;;;;;;3.28;1.15;;;10.00;94.50;;;;;;4995148;28;20081;-75
2020/12/15 04:10:10;;;;;;;2.88;0.98;;;10.00;94.50;;;;;;4994668;28;20026;-75
2020/12/15 04:12:36;;;;;;;3.40;1.25;;;10.00;94.50;;;;;;4995425;28;20126;-75
2020/12/15 04:15:05;;;;;;;2.03;1.08;;;10.10;94.60;;;;;;4993197;28;20069;-75
2020/12/15 04:17:36;;;;;;;1.75;1.20;;;10.10;94.60;;;;;;4993682;28;20019;-75
2020/12/15 04:20:03;;;;;;;2.63;1.37;;;10.10;94.60;;;;;;5009290;28;20122;-75
2020/12/15 04:22:29;;;;;;;2.35;1.05;;;10.10;94.60;;;;;;4994920;28;20019;-75
2020/12/15 04:24:54;;;;;;;3.25;1.20;;;10.10;94.60;;;;;;4992874;28;20026;-76
2020/12/15 04:27:20;;;;;;;2.97;0.98;;;10.10;94.60;;;;;;4994849;28;20109;-75
2020/12/15 04:29:45;;;;;;;2.22;1.00;;;10.10;94.60;;;;;;5009782;28;20328;-75
2020/12/15 04:32:11;;;;;;;2.53;1.20;;;10.10;94.60;;;;;;4994141;28;20057;-75
2020/12/15 04:34:36;;;;;;;2.40;1.30;;;10.10;94.60;;;;;;4994851;28;20026;-75
2020/12/15 04:37:02;;;;;;;1.60;0.80;;;10.10;94.50;;;;;;4993772;28;20034;-75
2020/12/15 04:39:28;;;;;;;1.10;0.80;;;10.10;94.60;;;;;;4994509;28;20026;-75
2020/12/15 04:41:54;;;;;;;2.28;0.90;;;10.10;94.60;;;;;;4993275;28;20033;-75
2020/12/15 04:44:20;;;;;;;4.07;1.23;;;10.10;94.60;;;;;;4992884;28;20058;-74
2020/12/15 04:46:51;;;;;;;1.73;0.90;;;10.10;94.60;;;;;;4994427;28;20038;-74
2020/12/15 04:49:25;;;;;;;3.03;1.20;;;10.20;94.60;;;;;;4992633;28;20027;-75
2020/12/15 04:52:04;;;;;;;1.40;1.10;;;10.20;94.60;;;;;;4994376;28;20031;-75
2020/12/15 04:54:32;;;;;;;1.42;0.80;;;10.20;94.60;;;;;;5008954;28;20050;-75
2020/12/15 04:57:00;;;;;;;2.33;1.25;;;10.20;94.60;;;;;;4993693;28;20119;-75
2020/12/15 04:59:32;;;;;;;3.17;1.25;;;10.10;94.60;;;;;;4994174;28;20027;-75
2020/12/15 05:02:02;;;;;;;1.33;0.80;;;10.20;94.60;;;;;;4993353;28;20029;-75
2020/12/15 05:04:32;;;;;;;4.55;1.20;;;10.20;94.60;;;;;;5009107;28;20023;-75
2020/12/15 05:06:59;;;;;;;2.03;1.25;;;10.10;94.60;;;;;;4992108;28;20045;-76
2020/12/15 05:09:30;;;;;;;1.58;0.90;;;10.20;94.60;;;;;;4993944;28;20019;-75
2020/12/15 05:11:56;;;;;;;1.17;0.90;;;10.20;94.60;;;;;;4994055;28;20026;-75
2020/12/15 05:14:23;;;;;;;3.65;1.17;;;10.20;94.60;;;;;;4993124;28;20077;-75
2020/12/15 05:16:49;;;;;;;3.35;1.15;;;10.20;94.60;;;;;;4975769;28;20331;-76
2020/12/15 05:19:15;;;;;;;1.77;1.13;;;10.20;94.60;;;;;;4993258;28;20425;-76
2020/12/15 05:22:00;;;;;;;1.95;1.40;;;10.20;94.60;;;;;;4973536;28;20030;-75
2020/12/15 05:24:28;;;;;;;2.30;0.90;;;10.20;94.60;;;;;;4990644;28;20136;-75
2020/12/15 05:27:00;;;;;;;2.33;1.20;;;10.10;94.60;;;;;;4993220;28;20458;-75
2020/12/15 05:29:27;;;;;;;2.15;0.95;;;10.20;94.60;;;;;;4993589;28;20030;-75
2020/12/15 05:31:53;;;;;;;1.58;0.75;;;10.20;94.70;;;;;;4992255;28;20032;-75
2020/12/15 05:34:28;;;;;;;3.38;0.95;;;10.20;94.70;;;;;;4975366;28;20026;-75
2020/12/15 05:36:59;;;;;;;3.20;0.90;;;10.20;94.60;;;;;;4993558;28;20053;-75
2020/12/15 05:39:26;;;;;;;3.40;1.08;;;10.20;94.60;;;;;;4993280;28;20096;-75
2020/12/15 05:42:06;;;;;;;2.33;1.10;;;10.20;94.60;;;;;;4993629;28;20022;-76
2020/12/15 05:44:35;;;;;;;3.75;1.05;;;10.20;94.60;;;;;;4992145;28;20514;-75
2020/12/15 05:47:06;;;;;;;1.90;1.02;;;10.10;94.60;;;;;;4975121;28;20037;-76
2020/12/15 05:49:35;;;;;;;2.05;1.17;;;10.10;94.60;;;;;;4976085;28;20118;-75
2020/12/15 05:52:00;;;;;;;1.25;0.80;;;10.10;94.70;;;;;;4990992;28;20581;-78
2020/12/15 05:54:27;;;;;;;4.32;1.02;;;10.10;94.70;;;;;;4990459;28;20085;-74
2020/12/15 05:57:07;;;;;;;4.28;1.10;;;10.10;94.70;;;;;;4989490;28;20471;-74
2020/12/15 05:59:37;;;;;;;1.38;0.90;;;10.20;94.60;;;;;;4973010;28;20098;-73
2020/12/15 06:02:05;;;;;;;2.88;1.05;;;10.20;94.70;;;;;;4989767;28;20023;-73
2020/12/15 06:04:32;;;;;;;1.95;1.08;;;10.10;94.60;;;;;;4990380;28;20030;-73
2020/12/15 06:07:00;;;;;;;3.03;1.42;;;10.20;94.60;;;;;;4990160;28;20018;-74
2020/12/15 06:09:29;;;;;;;3.53;1.02;;;10.10;94.60;;;;;;4990658;28;20050;-73
2020/12/15 06:11:54;;;;;;;3.03;1.00;;;10.20;94.90;;;;;;4990552;28;20069;-73
2020/12/15 06:14:23;;;;;;;1.42;0.90;;;10.20;94.60;;;;;;4989385;28;20057;-73
2020/12/15 06:16:49;;;;;;;2.40;1.20;;;10.20;94.60;;;;;;4990028;28;20041;-74
2020/12/15 06:19:16;;;;;;;2.08;1.00;;;10.10;94.60;;;;;;4989257;28;20034;-73
2020/12/15 06:21:55;;;;;;;1.85;1.30;;;10.20;94.60;;;;;;4992235;28;20030;-77
2020/12/15 06:24:38;;;;;;;2.55;0.98;;;10.20;94.50;;;;;;4974932;28;20385;-77
2020/12/15 06:27:05;;;;;;;3.08;1.27;;;10.20;94.80;;;;;;4991218;28;20022;-82
2020/12/15 06:29:33;;;;;;;1.88;1.05;;;10.10;94.50;;;;;;4975581;28;20035;-77
2020/12/15 06:32:00;;;;;;;2.00;0.82;;;10.10;94.60;;;;;;4992891;28;20045;-77
2020/12/15 06:34:27;;;;;;;3.28;1.10;;;10.10;94.60;;;;;;4992226;28;20117;-76
2020/12/15 06:36:55;;;;;;;2.88;1.00;;;10.10;94.60;;;;;;4991470;28;20470;-77
2020/12/15 06:39:25;;;;;;;1.85;0.80;;;10.10;94.60;;;;;;4992412;28;20121;-77
2020/12/15 06:42:02;;;;;;;1.58;0.85;;;10.10;94.60;;;;;;4992981;28;20023;-77
2020/12/15 06:44:30;;;;;;;2.05;1.15;;;10.20;94.60;;;;;;4974831;28;20112;-77
2020/12/15 06:46:57;;;;;;;1.90;0.88;;;10.20;94.60;;;;;;4991490;28;20466;-77
2020/12/15 06:49:33;;;;;;;2.67;1.00;;;10.10;94.60;;;;;;4991969;28;20390;-77
2020/12/15 06:52:00;;;;;;;1.77;0.90;;;10.20;94.60;;;;;;4992754;28;20030;-76
2020/12/15 06:54:28;;;;;;;1.98;1.00;;;10.20;94.60;;;;;;4974560;28;20486;-77
2020/12/15 06:57:12;;;;;;;1.27;0.82;;;10.20;94.60;;;;;;4992758;28;20036;-77
2020/12/15 06:59:39;;;;;;;1.85;1.15;;;10.20;94.50;;;;;;4975143;28;20077;-77
2020/12/15 07:02:09;;;;;;;3.22;1.00;;;10.20;94.60;;;;;;4992679;28;20027;-85
2020/12/15 07:04:46;;;;;;;1.92;1.13;;;10.10;94.60;;;;;;4992573;28;20117;-77
2020/12/15 07:07:13;;;;;;;1.98;1.00;;;10.10;94.50;;;;;;4992091;28;20061;-77
2020/12/15 07:09:39;;;;;;;3.70;1.02;;;10.10;94.50;;;;;;4992577;28;20027;-77
2020/12/15 07:12:13;;;;;;;3.72;1.10;;;10.10;94.50;;;;;;4992354;28;20027;-77
2020/12/15 07:14:42;;;;;;;1.70;1.05;;;10.20;94.50;;;;;;4992526;28;20022;-77
2020/12/15 07:17:08;;;;;;;2.03;0.93;;;10.20;94.50;;;;;;4992159;28;20530;-78
2020/12/15 07:19:34;;;;;;;2.05;1.00;;;10.20;94.50;;;;;;4991924;28;20126;-76
2020/12/15 07:22:03;;;;;;;2.03;0.95;;;10.20;94.50;;;;;;4975018;28;20029;-76
2020/12/15 07:24:29;;;;;;;3.10;1.08;;;10.20;94.50;;;;;;4994444;28;20455;-77
2020/12/15 07:26:56;;;;;;;1.50;0.93;;;10.20;94.50;;;;;;4996171;28;20064;-76
2020/12/15 07:29:21;;;;;;;1.60;0.90;;;10.20;94.50;;;;;;4994277;28;20026;-76
2020/12/15 07:31:48;;;;;;;1.95;1.00;;;10.20;94.50;;;;;;4978613;28;20027;-77
2020/12/15 07:34:16;;;;;;;2.33;0.90;;;10.20;94.50;;;;;;4995474;28;20029;-78
2020/12/15 07:36:44;;;;;;;3.00;1.05;;;10.20;94.50;;;;;;4995933;28;20038;-77
2020/12/15 07:39:10;;;;;;;4.00;1.13;;;10.20;94.50;;;;;;4994102;28;20023;-78
2020/12/15 07:41:36;;;;;;;1.98;1.10;;;10.20;94.50;;;;;;4994642;28;20018;-77
2020/12/15 07:44:14;;;;;;;1.48;0.73;;;10.20;94.50;;;;;;4995832;28;20117;-77
2020/12/15 07:46:45;;;;;;;2.45;1.08;;;10.20;94.50;;;;;;4978127;28;20026;-76
2020/12/15 07:49:12;;;;;;;4.32;1.23;;;10.20;94.50;;;;;;4993973;28;20057;-76
2020/12/15 07:51:37;;;;;;;1.92;1.10;;;10.20;94.40;;;;;;4994274;28;20026;-77
2020/12/15 07:54:03;;;;;;;1.25;1.00;;;10.20;94.40;;;;;;4995301;28;20089;-76
2020/12/15 07:56:30;;;;;;;2.85;1.00;;;10.20;94.40;;;;;;4993801;28;20282;-77
2020/12/15 07:58:56;;;;;;;2.70;1.10;;;10.20;94.50;;;;;;4994193;28;20033;-77
2020/12/15 08:01:26;;;;;;;2.78;1.23;;;10.20;94.50;;;;;;4995226;28;20023;-77
2020/12/15 08:04:13;;;;;;;2.55;1.20;;;10.20;94.50;;;;;;4995467;28;20026;-77
2020/12/15 08:06:41;;;;;;;3.15;1.25;;;10.20;94.40;;;;;;4977811;28;20070;-78
2020/12/15 08:09:09;;;;;;;5.05;1.00;;;10.20;94.80;;;;;;4995299;28;20482;-77
2020/12/15 08:11:36;;;;;;;1.45;0.80;;;10.20;94.50;;;;;;4977367;28;20027;-77
2020/12/15 08:14:03;;;;;;;2.22;1.17;;;10.30;94.50;;;;;;4993880;28;20097;-76
2020/12/15 08:16:30;;;;;;;3.45;1.02;;;10.30;94.50;;;;;;4994701;28;20029;-77
2020/12/15 08:19:03;;;;;;;1.42;0.90;;;10.30;94.50;;;;;;4993522;28;20458;-77
2020/12/15 08:21:48;;;;;;;1.42;1.00;;;10.30;94.50;;;;;;4993293;28;20018;-77
2020/12/15 08:24:17;;;;;;;2.40;1.25;;;10.30;94.50;;;;;;4994590;28;20073;-78
2020/12/15 08:26:44;;;;;;;1.77;0.95;;;10.30;94.50;;;;;;4994871;28;20026;-77
2020/12/15 08:29:12;;;;;;;2.08;1.00;;;10.30;94.50;;;;;;4977648;28;20018;-77
2020/12/15 08:31:40;;;;;;;2.53;1.42;;;10.30;94.50;;;;;;4977610;28;20048;-78
2020/12/15 08:34:11;;;;;;;2.72;1.23;;;10.30;94.50;;;;;;4994779;28;20026;-78
2020/12/15 08:36:46;;;;;;;1.38;0.90;;;10.30;94.50;;;;;;4993247;28;20030;-78
2020/12/15 08:39:14;;;;;;;2.95;1.10;;;10.40;94.50;;;;;;4977260;28;20026;-77
2020/12/15 08:42:00;;;;;;;4.75;1.10;;;10.40;94.50;;;;;;4993071;28;20046;-78
2020/12/15 08:44:26;;;;;;;4.40;1.60;;;10.40;94.40;;;;;;4994019;28;20035;-77
2020/12/15 08:46:55;;;;;;;4.47;1.90;;;10.30;94.40;;;;;;4994519;28;20068;-77
2020/12/15 08:49:21;;;;;;;5.13;1.85;;;10.40;94.40;;;;;;4993828;28;20469;-77
2020/12/15 08:51:50;;;;;;;3.63;1.30;;;10.40;94.40;;;;;;4994536;28;20026;-77
2020/12/15 08:54:17;;;;;;;3.65;1.35;;;10.40;94.40;;;;;;4976069;28;20053;-78
2020/12/15 08:56:43;;;;;;;5.28;1.67;;;10.40;94.40;;;;;;4993304;28;20061;-78
2020/12/15 08:59:16;;;;;;;3.03;1.20;;;10.40;94.40;;;;;;4993140;28;20030;-78
2020/12/15 09:01:43;;;;;;;2.85;1.40;;;10.40;94.40;;;;;;4994607;28;20031;-78
2020/12/15 09:04:10;;;;;;;2.05;1.50;;;10.40;94.30;;;;;;4992930;28;20061;-78
2020/12/15 09:06:38;;;;;;;2.80;1.50;;;10.40;94.30;;;;;;4993714;28;20062;-77
2020/12/15 09:09:05;;;;;;;3.25;1.85;;;10.40;94.30;;;;;;4994079;28;20054;-77
2020/12/15 09:11:30;;;;;;;4.93;1.90;;;10.40;94.30;;;;;;4992542;28;20048;-77
2020/12/15 09:13:57;;;;;;;5.53;1.88;;;10.40;94.30;;;;;;4994419;28;20360;-77
2020/12/15 09:16:36;;;;;;;5.63;2.38;;;10.40;94.30;;;;;;4992432;28;20121;-78
2020/12/15 09:19:29;;;;;;;4.70;2.60;;;10.40;94.30;;;;;;4994110;28;20065;-78
2020/12/15 09:22:08;;;;;;;5.72;3.38;;;10.40;94.30;;;;;;4989431;28;20034;-78
2020/12/15 09:24:41;;;;;;;4.68;2.33;;;10.50;94.30;;;;;;4993473;28;20121;-78
2020/12/15 09:27:16;;;;;;;6.35;2.65;;;10.40;94.40;;;;;;4993737;28;20035;-78
2020/12/15 09:29:41;;;;;;;5.38;1.50;;;10.50;94.40;;;;;;4976345;28;20038;-78
2020/12/15 09:32:07;;;;;;;4.68;1.65;;;10.50;94.40;;;;;;4993529;28;20040;-78
2020/12/15 09:34:33;;;;;;;6.28;1.88;;;10.50;94.40;;;;;;4975771;28;20484;-77
2020/12/15 09:36:59;;;;;;;3.75;1.73;;;10.50;94.30;;;;;;4993903;28;20022;-78
2020/12/15 09:39:27;;;;;;;3.75;1.55;;;10.50;94.30;;;;;;4991973;28;20061;-78
2020/12/15 09:41:56;;;;;;;4.55;1.73;;;10.60;94.30;;;;;;4993522;28;20076;-78
2020/12/15 09:44:22;;;;;;;4.60;1.73;;;10.60;94.30;;;;;;4993277;28;20026;-76
2020/12/15 09:46:47;;;;;;;2.60;1.70;;;10.60;94.30;;;;;;4991876;28;20037;-77
2020/12/15 09:49:13;;;;;;;5.82;1.70;;;10.60;94.30;;;;;;4993532;28;20030;-80
2020/12/15 09:51:41;;;;;;;4.05;1.70;;;10.60;94.30;;;;;;4991693;28;20077;-76
2020/12/15 09:54:07;;;;;;;4.38;1.45;;;10.70;94.30;;;;;;4992976;28;20061;-77
2020/12/15 09:56:32;;;;;;;3.92;1.45;;;10.70;94.30;;;;;;4991612;28;20030;-76
2020/12/15 09:58:58;;;;;;;3.08;1.23;;;10.70;94.30;;;;;;4991895;28;20459;-76
2020/12/15 10:01:24;;;;;;;7.05;2.10;;;10.70;94.30;;;;;;4992736;28;20084;-77
2020/12/15 10:03:50;;;;;;;3.90;1.52;;;10.70;94.30;;;;;;4975673;28;20418;-76
2020/12/15 10:06:16;;;;;;;3.80;1.50;;;10.70;94.30;;;;;;4975735;28;20328;-76
2020/12/15 10:08:41;;;;;;;2.50;1.40;;;10.80;94.30;;;;;;4991277;28;20079;-77
2020/12/15 10:11:07;;;;;;;4.35;1.60;;;10.80;94.30;;;;;;4993408;28;20077;-76
2020/12/15 10:13:33;;;;;;;4.95;1.60;;;10.80;94.30;;;;;;4992557;28;20031;-77
2020/12/15 10:15:59;;;;;;;3.97;1.50;;;10.80;94.30;;;;;;4975572;28;20033;-76
2020/12/15 10:18:24;;;;;;;6.32;1.92;;;10.80;94.30;;;;;;4992659;28;20026;-77
2020/12/15 10:20:50;;;;;;;4.88;1.52;;;10.80;94.20;;;;;;4992992;28;20065;-77
2020/12/15 10:23:15;;;;;;;4.00;1.42;;;10.80;94.20;;;;;;4993089;28;20419;-77
2020/12/15 10:25:41;;;;;;;3.22;1.50;;;10.80;94.20;;;;;;4992283;28;20038;-77
2020/12/15 10:28:09;;;;;;;4.57;1.55;;;10.80;94.20;;;;;;4992879;28;20035;-77
2020/12/15 10:30:35;;;;;;;3.28;1.65;;;10.90;94.20;;;;;;4991157;28;20177;-77
2020/12/15 10:33:01;;;;;;;4.38;1.75;;;10.90;94.20;;;;;;4991656;28;20090;-77
2020/12/15 10:35:26;;;;;;;5.22;1.65;;;10.80;94.20;;;;;;4992431;28;20026;-77
2020/12/15 10:37:52;;;;;;;4.10;1.30;;;10.90;94.20;;;;;;4992806;28;20104;-77
2020/12/15 10:40:17;;;;;;;3.17;1.48;;;10.90;94.20;;;;;;4991446;28;20030;-77
2020/12/15 10:42:44;;;;;;;3.72;1.65;;;10.90;94.20;;;;;;4991092;28;20093;-78
2020/12/15 10:45:09;;;;;;;4.70;1.95;;;10.90;94.20;;;;;;4991313;28;20018;-77
2020/12/15 10:47:35;;;;;;;6.72;2.00;;;10.90;94.10;;;;;;4992263;28;20073;-77
2020/12/15 10:50:01;;;;;;;3.53;1.63;;;10.90;94.10;;;;;;4992700;28;20023;-77
2020/12/15 10:52:26;;;;;;;4.80;1.75;;;10.90;94.10;;;;;;4990831;28;20029;-77
2020/12/15 10:54:52;;;;;;;6.72;2.17;;;10.90;94.10;;;;;;4992640;28;20548;-76
2020/12/15 10:57:18;;;;;;;6.63;1.85;;;10.90;94.20;;;;;;4992698;28;20081;-77
2020/12/15 10:59:43;;;;;;;5.15;1.50;;;10.90;94.20;;;;;;4995135;28;20026;-77
2020/12/15 11:02:09;;;;;;;6.20;2.08;;;10.90;94.20;;;;;;4995310;28;20018;-78
2020/12/15 11:04:36;;;;;;;4.15;1.80;;;10.90;94.20;;;;;;4978548;28;20030;-77
2020/12/15 11:07:01;;;;;;;4.68;2.20;;;10.90;94.20;;;;;;4994799;28;20475;-78
2020/12/15 11:09:27;;;;;;;6.65;2.95;;;10.90;94.20;;;;;;4996054;28;20041;-78
2020/12/15 11:11:53;;;;;;;5.85;2.90;;;10.90;94.20;;;;;;4996303;28;20446;-77
2020/12/15 11:14:19;;;;;;;7.72;2.65;;;10.90;94.20;;;;;;4996118;28;20446;-77
2020/12/15 11:16:45;;;;;;;4.40;1.98;;;10.90;94.20;;;;;;4994202;28;20042;-77
2020/12/15 11:19:11;;;;;;;6.65;2.33;;;10.90;94.30;;;;;;4995806;28;20102;-77
2020/12/15 11:21:36;;;;;;;6.45;2.05;;;11.00;94.30;;;;;;4995556;28;20513;-78
2020/12/15 11:24:02;;;;;;;6.97;2.28;;;10.90;94.30;;;;;;4996135;28;20042;-78
2020/12/15 11:26:28;;;;;;;6.50;2.38;;;10.90;94.30;;;;;;4995487;28;20034;-78
2020/12/15 11:28:53;;;;;;;6.40;2.85;;;10.90;94.30;;;;;;4996018;28;20027;-78
2020/12/15 11:31:19;;;;;;;6.65;2.42;;;10.90;94.30;;;;;;4978596;28;20035;-78
2020/12/15 11:33:45;;;;;;;5.45;1.83;;;10.90;94.30;;;;;;4977978;28;20477;-77
2020/12/15 11:36:11;;;;;;;5.70;2.75;;;10.90;94.30;;;;;;4995928;28;20057;-77
2020/12/15 11:38:39;;;;;;;9.75;2.95;;;10.90;94.30;;;;;;4995714;28;20019;-77
2020/12/15 11:41:06;;;;;;;7.68;2.35;;;10.90;94.40;;;;;;4995793;28;20067;-77
2020/12/15 11:43:32;;;;;;;7.22;2.90;;;10.90;94.40;;;;;;4995309;28;20085;-78
2020/12/15 11:45:57;;;;;;;7.88;2.65;;;10.90;94.40;;;;;;4994400;28;20386;-77
2020/12/15 11:48:23;;;;;;;5.25;2.10;;;10.90;94.40;;;;;;4994495;28;20030;-77
2020/12/15 11:50:49;;;;;;;6.32;2.45;;;10.90;94.40;;;;;;4977797;28;20409;-77
2020/12/15 11:53:14;;;;;;;3.97;1.40;;;11.00;94.40;;;;;;4978196;28;20065;-77
2020/12/15 11:55:40;;;;;;;5.30;1.80;;;11.00;94.40;;;;;;4995190;28;20494;-77
2020/12/15 11:58:06;;;;;;;4.40;2.10;;;11.00;94.40;;;;;;4995406;28;20026;-77
2020/12/15 12:00:31;;;;;;;4.72;1.83;;;11.00;94.40;;;;;;4993703;28;20026;-77
2020/12/15 12:02:57;;;;;;;7.32;1.55;;;11.00;94.40;;;;;;4995412;28;20360;-76
2020/12/15 12:05:23;;;;;;;5.88;1.77;;;11.00;94.40;;;;;;4994923;28;20045;-77
2020/12/15 12:07:48;;;;;;;3.53;1.67;;;11.00;94.40;;;;;;4977536;28;20066;-77
2020/12/15 12:10:14;;;;;;;7.55;1.90;;;11.00;94.30;;;;;;4995075;28;20050;-77
2020/12/15 12:12:41;;;;;;;8.00;2.22;;;11.00;94.30;;;;;;4994636;28;20034;-75
2020/12/15 12:15:07;;;;;;;3.60;1.90;;;11.00;94.30;;;;;;4977922;28;20438;-75
2020/12/15 12:17:33;;;;;;;5.63;1.90;;;11.00;94.30;;;;;;4994729;28;20451;-75
2020/12/15 12:19:58;;;;;;;5.18;2.28;;;11.00;94.30;;;;;;4995004;28;20101;-76
2020/12/15 12:22:24;;;;;;;4.72;1.85;;;11.00;94.40;;;;;;4995282;28;20414;-75
2020/12/15 12:24:50;;;;;;;5.10;1.63;;;11.00;94.40;;;;;;4994748;28;20038;-76
2020/12/15 12:27:15;;;;;;;7.70;2.25;;;11.00;94.50;;;;;;4994968;28;20026;-75
2020/12/15 12:29:41;;;;;;;4.70;2.30;;;11.00;94.50;;;;;;4994692;28;20039;-76
2020/12/15 12:32:07;;;;;;;10.10;2.13;;;11.00;94.50;;;;;;4994991;28;20030;-75
2020/12/15 12:34:33;;;;;;;7.18;2.08;;;11.00;94.60;;;;;;4994428;28;20030;-77
2020/12/15 12:36:59;;;;;;;9.18;3.65;;;11.00;94.50;;;;;;4993659;28;20438;-76
2020/12/15 12:39:25;;;;;;;9.27;2.58;;;10.90;94.50;;;;;;4993381;28;20019;-75
2020/12/15 12:41:52;;;;;;;10.40;3.22;;;10.90;94.60;;;;;;4976923;28;20287;-75
2020/12/15 12:44:21;;;;;;;8.68;2.78;;;10.90;94.60;;;;;;4994292;28;20455;-75
2020/12/15 12:46:51;;;;;;;7.70;2.35;;;10.90;94.70;;;;;;4993786;28;20386;-79
2020/12/15 12:49:17;;;;;;;4.38;2.10;;;11.00;94.70;;;;;;4994576;28;20386;-76